Time;durP1;ratioP1;P1;durP2;ratioP2;P2;SDS_P1;SDS_P2;PMS_P1;PMS_P2;Temp;Humidity;BMP_temperature;BMP_pressure;BME280_temperature;BME280_humidity;BME280_pressure;Samples;Min_cycle;Max_cycle;Signal;HPM_P1;HPM_P2
2023/03/03 00:00:42;;;;;;;6.80;1.80;;;;;;;10.46;61.90;101258.03;4931456;29;20055;-74
2023/03/03 00:03:13;;;;;;;10.25;1.88;;;;;;;10.52;62.92;101262.56;4931464;29;20048;-78
2023/03/03 00:05:41;;;;;;;4.95;1.10;;;;;;;10.56;62.03;101256.69;4936942;28;20607;-77
2023/03/03 00:08:12;;;;;;;5.70;1.73;;;;;;;10.60;60.35;101255.97;4947307;28;20066;-79
2023/03/03 00:10:40;;;;;;;6.15;1.67;;;;;;;10.59;59.78;101250.75;4956595;28;20039;-77
2023/03/03 00:13:16;;;;;;;4.43;1.23;;;;;;;10.58;56.41;101257.63;4948712;28;20098;-77
2023/03/03 00:15:45;;;;;;;5.72;1.48;;;;;;;10.57;57.23;101261.03;4951781;28;20047;-78
2023/03/03 00:18:26;;;;;;;6.53;1.48;;;;;;;10.54;54.27;101263.50;4952846;28;20067;-77
2023/03/03 00:21:06;;;;;;;5.65;1.30;;;;;;;10.44;51.54;101269.16;4952686;28;20055;-76
2023/03/03 00:23:39;;;;;;;3.28;0.90;;;;;;;10.35;51.22;101267.09;4948186;28;20059;-76
2023/03/03 00:26:19;;;;;;;2.60;0.93;;;;;;;10.30;51.81;101276.38;4957796;28;20062;-77
2023/03/03 00:28:49;;;;;;;3.28;0.90;;;;;;;10.25;54.05;101283.94;4953632;28;20138;-78
2023/03/03 00:31:20;;;;;;;5.50;1.38;;;;;;;10.20;53.69;101280.28;4952440;28;20048;-75
2023/03/03 00:33:53;;;;;;;3.08;1.05;;;;;;;10.17;54.58;101285.34;4958505;28;20532;-77
2023/03/03 00:36:36;;;;;;;3.72;1.27;;;;;;;10.13;52.66;101280.00;4949820;28;20055;-76
2023/03/03 00:39:20;;;;;;;4.60;1.02;;;;;;;10.06;52.21;101289.22;4951712;28;20109;-77
2023/03/03 00:41:49;;;;;;;1.58;0.75;;;;;;;10.06;51.51;101292.66;4951555;28;20126;-77
2023/03/03 00:44:42;;;;;;;4.40;0.90;;;;;;;10.00;53.56;101292.41;4952056;28;20051;-78
2023/03/03 00:47:32;;;;;;;3.95;1.20;;;;;;;9.93;54.30;101298.16;4952045;28;20066;-78
2023/03/03 00:50:32;;;;;;;6.40;1.27;;;;;;;9.88;54.30;101304.84;4960644;28;20046;-77
2023/03/03 00:53:04;;;;;;;6.03;1.13;;;;;;;9.85;54.56;101308.19;4894485;29;20049;-77
2023/03/03 00:55:35;;;;;;;3.53;0.77;;;;;;;9.76;53.30;101307.81;4942405;28;20166;-78
2023/03/03 00:58:04;;;;;;;3.08;1.02;;;;;;;9.66;54.00;101308.22;4950227;28;20051;-77
2023/03/03 01:00:33;;;;;;;5.10;1.35;;;;;;;9.60;56.30;101308.00;4949036;28;20055;-77
2023/03/03 01:03:04;;;;;;;2.45;1.00;;;;;;;9.57;53.97;101310.44;4946431;28;20063;-77
2023/03/03 01:05:33;;;;;;;3.55;0.82;;;;;;;9.50;55.10;101309.28;4954140;28;20489;-77
2023/03/03 01:08:02;;;;;;;3.88;0.75;;;;;;;9.43;53.24;101310.72;4972909;28;20050;-78
2023/03/03 01:10:35;;;;;;;3.25;0.80;;;;;;;9.37;55.74;101315.63;4969748;28;20054;-78
2023/03/03 01:13:04;;;;;;;5.18;1.67;;;;;;;9.28;55.70;101312.66;4965137;28;20047;-77
2023/03/03 01:15:33;;;;;;;3.35;0.63;;;;;;;9.28;55.85;101311.75;4969988;28;20125;-77
2023/03/03 01:18:01;;;;;;;5.43;1.33;;;;;;;9.26;56.75;101319.44;4968785;28;20105;-77
2023/03/03 01:20:30;;;;;;;10.45;1.02;;;;;;;9.26;56.40;101316.88;4970736;28;20058;-77
2023/03/03 01:22:58;;;;;;;7.45;1.58;;;;;;;9.23;55.85;101324.47;4965906;28;20114;-77
2023/03/03 01:25:27;;;;;;;8.18;1.63;;;;;;;9.15;56.65;101331.00;4969142;28;20049;-76
2023/03/03 01:27:57;;;;;;;4.88;1.05;;;;;;;9.04;57.60;101333.09;4969645;28;20093;-77
2023/03/03 01:30:26;;;;;;;9.00;1.48;;;;;;;8.97;56.33;101337.09;4973633;28;20130;-75
2023/03/03 01:32:55;;;;;;;6.00;0.80;;;;;;;8.85;54.27;101336.56;4970140;28;20464;-75
2023/03/03 01:35:24;;;;;;;3.72;0.98;;;;;;;8.71;54.61;101332.47;4972297;28;20089;-75
2023/03/03 01:37:53;;;;;;;3.28;1.05;;;;;;;8.59;55.01;101320.75;4968985;28;20053;-73
2023/03/03 01:40:23;;;;;;;3.45;0.75;;;;;;;8.57;55.69;101321.50;4969859;28;20093;-75
2023/03/03 01:42:53;;;;;;;5.80;0.80;;;;;;;8.45;57.53;101311.47;4971334;28;20429;-74
2023/03/03 01:45:26;;;;;;;5.93;1.83;;;;;;;8.34;58.83;101315.22;4970216;28;20050;-74
2023/03/03 01:48:00;;;;;;;2.25;0.93;;;;;;;8.21;58.53;101310.31;4970688;28;20051;-73
2023/03/03 01:50:39;;;;;;;6.32;1.25;;;;;;;8.09;60.79;101313.19;4972115;28;20515;-73
2023/03/03 01:53:14;;;;;;;7.70;1.30;;;;;;;8.02;62.00;101323.97;4963706;28;20051;-73
2023/03/03 01:55:44;;;;;;;2.85;1.30;;;;;;;7.93;61.59;101327.00;4974309;28;20047;-74
2023/03/03 01:58:18;;;;;;;3.72;0.70;;;;;;;7.85;62.94;101320.56;4972218;28;20053;-73
2023/03/03 02:00:55;;;;;;;5.10;1.00;;;;;;;7.78;62.47;101332.25;4969977;28;20124;-72
2023/03/03 02:03:25;;;;;;;2.83;0.93;;;;;;;7.73;64.04;101333.72;4970644;28;20058;-72
2023/03/03 02:05:56;;;;;;;8.98;1.35;;;;;;;7.68;63.51;101340.34;4967555;28;20065;-73
2023/03/03 02:08:29;;;;;;;6.28;1.38;;;;;;;7.63;64.59;101342.69;4951928;28;20051;-76
2023/03/03 02:10:58;;;;;;;;;;;;;;;7.58;64.54;101346.69;4958716;28;20043;-74
2023/03/03 02:13:26;;;;;;;6.35;0.75;;;;;;;7.56;66.04;101361.22;4959061;28;19930;-72
2023/03/03 02:15:57;;;;;;;7.13;1.02;;;;;;;7.53;66.47;101366.19;4954057;28;20050;-74
2023/03/03 02:18:27;;;;;;;2.40;0.82;;;;;;;7.53;67.00;101376.50;4952163;28;20066;-76
2023/03/03 02:21:03;;;;;;;2.75;1.38;;;;;;;7.51;67.69;101388.41;4951988;28;20052;-78
2023/03/03 02:23:37;;;;;;;10.63;1.45;;;;;;;7.48;68.39;101408.84;4953987;28;20046;-79
2023/03/03 02:26:12;;;;;;;6.13;1.00;;;;;;;7.43;68.94;101410.31;4955975;28;20261;-78
2023/03/03 02:28:42;;;;;;;6.18;1.77;;;;;;;7.38;69.41;101402.34;4954810;28;20908;-78
2023/03/03 02:31:14;;;;;;;7.38;1.92;;;;;;;7.34;70.58;101395.25;4957110;28;20654;-78
2023/03/03 02:33:43;;;;;;;10.40;1.30;;;;;;;7.28;72.03;101390.69;4956247;28;20119;-76
2023/03/03 02:36:16;;;;;;;5.15;1.05;;;;;;;7.26;73.13;101396.53;4954103;28;20642;-75
2023/03/03 02:38:50;;;;;;;6.93;1.35;;;;;;;7.24;73.43;101403.28;4954749;28;20058;-76
2023/03/03 02:41:33;;;;;;;5.97;2.10;;;;;;;7.21;74.21;101406.56;4954316;28;20044;-74
2023/03/03 02:44:03;;;;;;;8.15;1.35;;;;;;;7.19;74.82;101415.03;4950694;28;20044;-75
2023/03/03 02:46:35;;;;;;;5.80;0.80;;;;;;;7.15;73.92;101416.56;4954888;28;20055;-74
2023/03/03 02:49:05;;;;;;;3.45;0.90;;;;;;;7.11;74.15;101406.91;4952931;28;20051;-74
2023/03/03 02:51:33;;;;;;;10.43;1.48;;;;;;;7.05;74.14;101412.59;4949419;28;20051;-74
2023/03/03 02:54:03;;;;;;;4.65;1.23;;;;;;;6.98;74.37;101407.03;4941479;28;20610;-74
2023/03/03 02:56:34;;;;;;;5.10;1.23;;;;;;;6.86;74.47;101390.13;4943565;28;20058;-74
2023/03/03 02:59:03;;;;;;;6.70;1.05;;;;;;;6.69;75.48;101393.47;4949838;28;20051;-73
2023/03/03 03:01:35;;;;;;;5.70;0.75;;;;;;;6.58;75.52;101394.56;4961733;28;20054;-74
2023/03/03 03:04:07;;;;;;;2.17;0.60;;;;;;;6.50;76.51;101391.53;4953016;28;20153;-74
2023/03/03 03:06:36;;;;;;;3.55;0.63;;;;;;;6.41;77.76;101394.47;4939423;28;20056;-74
2023/03/03 03:09:05;;;;;;;5.57;0.90;;;;;;;6.29;79.07;101391.22;4924683;29;20490;-73
2023/03/03 03:11:36;;;;;;;4.22;0.80;;;;;;;6.25;79.46;101403.03;4930978;29;20051;-75
2023/03/03 03:14:04;;;;;;;4.85;0.77;;;;;;;6.25;79.08;101414.97;4926142;29;20075;-76
2023/03/03 03:16:33;;;;;;;0.93;0.40;;;;;;;6.25;79.52;101418.44;4929280;29;20192;-75
2023/03/03 03:19:03;;;;;;;7.18;1.15;;;;;;;6.26;79.16;101419.34;4925429;29;20047;-76
2023/03/03 03:21:32;;;;;;;6.00;1.23;;;;;;;6.22;79.42;101419.94;4916465;29;20119;-75
2023/03/03 03:24:01;;;;;;;4.25;0.57;;;;;;;6.14;79.71;101416.03;4929725;29;20607;-75
2023/03/03 03:26:30;;;;;;;1.70;0.60;;;;;;;6.08;80.96;101420.03;4929142;29;20106;-75
2023/03/03 03:29:00;;;;;;;3.22;1.13;;;;;;;5.99;81.23;101414.34;4926906;29;20062;-74
2023/03/03 03:31:29;;;;;;;2.30;0.85;;;;;;;6.03;81.87;101429.16;4924580;29;20048;-76
2023/03/03 03:33:59;;;;;;;4.47;0.90;;;;;;;6.02;82.36;101426.50;4928869;29;20058;-75
2023/03/03 03:36:27;;;;;;;2.90;0.68;;;;;;;5.99;81.86;101416.94;4931814;29;20051;-74
2023/03/03 03:38:56;;;;;;;13.07;1.02;;;;;;;5.96;82.46;101429.59;4928541;29;20079;-75
2023/03/03 03:41:25;;;;;;;2.88;0.88;;;;;;;5.93;82.71;101444.78;4923746;29;20044;-76
2023/03/03 03:43:53;;;;;;;5.18;0.80;;;;;;;5.92;82.79;101444.72;4921697;29;20098;-75
2023/03/03 03:46:24;;;;;;;1.42;1.17;;;;;;;5.90;83.35;101444.59;4932239;29;20525;-75
2023/03/03 03:48:52;;;;;;;2.63;0.73;;;;;;;5.87;83.91;101454.72;4929790;29;20051;-74
2023/03/03 03:51:21;;;;;;;5.10;1.35;;;;;;;5.83;84.27;101437.34;4926715;29;20132;-74
2023/03/03 03:53:50;;;;;;;1.23;0.50;;;;;;;5.79;85.72;101448.22;4928674;29;20052;-75
2023/03/03 03:56:18;;;;;;;3.42;0.82;;;;;;;5.77;87.43;101457.50;4928059;29;20398;-74
2023/03/03 03:58:47;;;;;;;3.15;1.10;;;;;;;5.70;88.18;101455.38;4929349;29;20498;-76
2023/03/03 04:01:16;;;;;;;3.95;0.65;;;;;;;5.58;86.97;101450.38;4923623;29;20065;-75
2023/03/03 04:03:47;;;;;;;1.90;0.40;;;;;;;5.53;88.59;101447.53;4931765;29;20063;-76
2023/03/03 04:06:16;;;;;;;1.85;0.80;;;;;;;5.52;87.87;101450.91;4942124;28;20138;-74
2023/03/03 04:08:45;;;;;;;4.03;0.60;;;;;;;5.52;87.39;101445.78;4969233;28;20062;-75
2023/03/03 04:11:13;;;;;;;0.93;0.50;;;;;;;5.52;87.27;101444.88;4974343;28;20141;-74
2023/03/03 04:13:50;;;;;;;6.68;1.38;;;;;;;5.52;86.87;101461.19;4975577;28;20054;-74
2023/03/03 04:16:19;;;;;;;4.38;0.85;;;;;;;5.48;86.83;101459.22;4973575;28;20050;-75
2023/03/03 04:18:49;;;;;;;2.80;0.80;;;;;;;5.41;85.80;101451.94;4972584;28;20066;-76
2023/03/03 04:21:18;;;;;;;5.22;1.30;;;;;;;5.35;86.45;101456.69;4966941;28;20520;-76
2023/03/03 04:23:47;;;;;;;2.33;0.95;;;;;;;5.19;87.84;101454.84;4975080;28;20050;-76
2023/03/03 04:26:15;;;;;;;3.80;0.95;;;;;;;5.06;88.63;101458.31;4968788;28;20066;-72
2023/03/03 04:28:44;;;;;;;1.73;1.00;;;;;;;5.02;89.56;101464.94;4976219;28;20088;-73
2023/03/03 04:31:13;;;;;;;4.40;1.00;;;;;;;5.02;89.47;101454.66;4975226;28;20053;-74
2023/03/03 04:33:41;;;;;;;2.70;0.52;;;;;;;4.99;89.39;101448.44;4971806;28;20050;-72
2023/03/03 04:36:18;;;;;;;3.22;0.77;;;;;;;4.80;92.87;101447.28;4971182;28;20054;-73
2023/03/03 04:38:46;;;;;;;5.57;1.23;;;;;;;4.68;92.89;101454.19;4969994;28;20070;-77
2023/03/03 04:41:15;;;;;;;5.50;1.13;;;;;;;4.62;92.57;101459.81;4971285;28;20055;-73
2023/03/03 04:43:44;;;;;;;4.80;0.70;;;;;;;4.65;93.92;101456.59;4971721;28;20067;-73
2023/03/03 04:46:13;;;;;;;2.60;0.90;;;;;;;4.69;94.66;101463.66;4977491;28;20054;-74
2023/03/03 04:48:41;;;;;;;5.55;0.70;;;;;;;4.70;93.86;101457.75;4971462;28;20051;-73
2023/03/03 04:51:10;;;;;;;3.08;0.85;;;;;;;4.62;94.53;101446.09;4970543;28;20053;-78
2023/03/03 04:53:40;;;;;;;1.77;0.40;;;;;;;4.54;94.85;101449.88;4970981;28;20069;-84
2023/03/03 04:56:09;;;;;;;10.25;0.98;;;;;;;4.38;96.04;101454.00;4966035;28;20054;-79
2023/03/03 04:58:37;;;;;;;4.75;0.82;;;;;;;4.27;97.53;101446.38;4978889;28;20051;-77
2023/03/03 05:01:06;;;;;;;1.73;0.70;;;;;;;4.23;97.90;101450.41;4972758;28;20042;-81
2023/03/03 05:03:35;;;;;;;4.72;1.77;;;;;;;4.25;98.36;101453.97;4972530;28;20059;-80
2023/03/03 05:06:10;;;;;;;1.63;0.73;;;;;;;4.28;97.37;101459.28;4970333;28;20057;-80
2023/03/03 05:08:42;;;;;;;3.90;1.02;;;;;;;4.30;96.88;101470.53;4971238;28;20113;-77
2023/03/03 05:11:10;;;;;;;3.88;0.95;;;;;;;4.31;96.21;101464.63;4972713;28;20100;-84
2023/03/03 05:13:39;;;;;;;2.55;0.88;;;;;;;4.32;95.69;101466.38;4973689;28;20465;-79
2023/03/03 05:16:08;;;;;;;5.40;0.80;;;;;;;4.35;95.13;101464.06;4972338;28;20051;-78
2023/03/03 05:18:36;;;;;;;2.55;0.80;;;;;;;4.36;95.30;101468.38;4968542;28;20054;-79
2023/03/03 05:21:05;;;;;;;5.30;2.03;;;;;;;4.38;95.75;101469.38;4971448;28;20038;-73
2023/03/03 05:23:34;;;;;;;4.55;1.92;;;;;;;4.41;95.35;101478.91;4967736;28;20655;-73
2023/03/03 05:26:05;;;;;;;11.60;1.63;;;;;;;4.43;95.05;101482.47;4967562;28;20050;-74
2023/03/03 05:28:34;;;;;;;3.95;1.63;;;;;;;4.43;94.76;101487.59;4971874;28;20054;-76
2023/03/03 05:31:02;;;;;;;11.15;2.47;;;;;;;4.44;95.74;101488.47;4970521;28;20046;-75
2023/03/03 05:33:31;;;;;;;6.07;2.28;;;;;;;4.46;95.70;101503.16;4975654;28;20062;-75
2023/03/03 05:35:59;;;;;;;14.88;3.85;;;;;;;4.48;96.02;101495.59;4968932;28;20054;-76
2023/03/03 05:38:28;;;;;;;14.57;5.72;;;;;;;4.43;95.50;101496.97;4975974;28;20057;-76
2023/03/03 05:40:57;;;;;;;12.02;3.67;;;;;;;4.39;97.27;101496.75;4970203;28;20054;-74
2023/03/03 05:43:28;;;;;;;10.63;3.30;;;;;;;4.33;98.40;101498.94;4970555;28;20062;-80
2023/03/03 05:45:57;;;;;;;7.40;2.58;;;;;;;4.31;100.00;101491.94;4976125;28;20133;-74
2023/03/03 05:48:25;;;;;;;5.07;1.65;;;;;;;4.25;100.00;101492.38;4969834;28;20555;-77
2023/03/03 05:50:54;;;;;;;5.57;1.92;;;;;;;4.22;100.00;101489.63;4965883;28;20102;-76
2023/03/03 05:53:22;;;;;;;4.43;2.22;;;;;;;4.22;100.00;101497.31;4971054;28;20050;-77
2023/03/03 05:55:51;;;;;;;10.27;1.90;;;;;;;4.23;100.00;101483.72;4973696;28;20045;-75
2023/03/03 05:58:20;;;;;;;3.20;1.02;;;;;;;4.25;100.00;101477.03;4972631;28;20066;-75
2023/03/03 06:00:50;;;;;;;3.75;2.00;;;;;;;4.31;100.00;101477.44;4965864;28;20054;-77
2023/03/03 06:03:18;;;;;;;4.60;1.88;;;;;;;4.36;100.00;101475.19;4970483;28;20500;-76
2023/03/03 06:05:51;;;;;;;6.07;1.15;;;;;;;4.40;99.83;101477.16;4970066;28;20055;-78
2023/03/03 06:08:19;;;;;;;;;;;;;;;4.43;99.89;101461.97;4971124;28;20066;-79
2023/03/03 06:10:48;;;;;;;4.55;1.88;;;;;;;4.44;99.76;101468.88;4965594;28;19922;-77
2023/03/03 06:13:16;;;;;;;9.40;1.85;;;;;;;4.46;98.98;101479.22;4971613;28;20058;-77
2023/03/03 06:15:45;;;;;;;4.40;1.27;;;;;;;4.48;98.75;101477.66;4969153;28;20050;-78
2023/03/03 06:18:15;;;;;;;4.85;1.35;;;;;;;4.48;98.39;101469.97;4968941;28;20051;-76
2023/03/03 06:20:43;;;;;;;7.72;1.40;;;;;;;4.50;97.81;101470.97;4973338;28;20647;-78
2023/03/03 06:23:12;;;;;;;6.30;1.40;;;;;;;4.51;97.76;101475.28;4968523;28;20061;-79
2023/03/03 06:25:40;;;;;;;4.53;1.20;;;;;;;4.49;97.27;101480.31;4971357;28;20050;-76
2023/03/03 06:28:09;;;;;;;6.60;1.45;;;;;;;4.48;97.75;101481.09;4972489;28;20512;-77
2023/03/03 06:30:37;;;;;;;4.97;1.17;;;;;;;4.48;96.83;101482.78;4971290;28;20105;-75
2023/03/03 06:33:06;;;;;;;6.25;1.73;;;;;;;4.47;96.38;101476.78;4966413;28;20537;-76
2023/03/03 06:35:36;;;;;;;4.50;1.48;;;;;;;4.46;96.27;101477.53;4968893;28;20063;-78
2023/03/03 06:38:05;;;;;;;8.77;1.50;;;;;;;4.44;96.35;101480.78;4971833;28;20166;-78
2023/03/03 06:40:33;;;;;;;9.00;1.55;;;;;;;4.43;96.00;101491.84;4968325;28;20078;-75
2023/03/03 06:43:06;;;;;;;4.25;0.90;;;;;;;4.39;95.03;101493.31;4974646;28;20050;-76
2023/03/03 06:45:34;;;;;;;;;;;;;;;4.36;95.39;101501.69;4971252;28;20054;-75
2023/03/03 06:48:03;;;;;;;2.38;1.08;;;;;;;4.33;95.59;101495.44;4972115;28;20017;-75
2023/03/03 06:50:32;;;;;;;7.57;1.10;;;;;;;4.31;95.82;101503.06;4968572;28;20058;-73
2023/03/03 06:53:11;;;;;;;4.55;1.77;;;;;;;4.28;95.63;101507.06;4967008;28;20047;-77
2023/03/03 06:55:40;;;;;;;5.53;1.70;;;;;;;4.28;96.43;101507.06;4969851;28;20110;-77
2023/03/03 06:58:14;;;;;;;9.82;2.83;;;;;;;4.26;95.95;101511.19;4975338;28;20058;-76
2023/03/03 07:00:44;;;;;;;6.53;2.70;;;;;;;4.26;96.98;101509.56;4970113;28;20070;-74
2023/03/03 07:03:17;;;;;;;12.05;4.07;;;;;;;4.20;97.56;101501.44;4973708;28;20050;-73
2023/03/03 07:05:46;;;;;;;10.88;2.20;;;;;;;4.09;100.00;101502.41;4975632;28;20133;-73
2023/03/03 07:08:18;;;;;;;6.88;2.15;;;;;;;4.03;100.00;101500.28;4972475;28;20059;-73
2023/03/03 07:10:48;;;;;;;5.05;1.70;;;;;;;3.98;100.00;101497.41;4970596;28;20195;-73
2023/03/03 07:13:20;;;;;;;1.83;1.33;;;;;;;3.90;100.00;101502.84;4970197;28;20046;-73
2023/03/03 07:15:49;;;;;;;;;;;;;;;3.81;100.00;101500.53;4972021;28;20058;-74
2023/03/03 07:18:34;;;;;;;3.00;1.40;;;;;;;3.77;100.00;101494.28;4972044;28;19934;-73
2023/03/03 07:21:15;;;;;;;5.65;2.28;;;;;;;3.77;100.00;101491.72;4966406;28;20050;-73
2023/03/03 07:23:46;;;;;;;5.03;0.93;;;;;;;3.76;100.00;101489.97;4974642;28;20109;-73
2023/03/03 07:26:17;;;;;;;8.27;1.35;;;;;;;3.78;100.00;101496.09;4971529;28;20035;-73
2023/03/03 07:28:48;;;;;;;4.50;1.15;;;;;;;3.81;100.00;101503.09;4972677;28;20062;-73
2023/03/03 07:31:29;;;;;;;5.60;1.25;;;;;;;3.87;100.00;101503.50;4972370;28;20722;-73
2023/03/03 07:34:01;;;;;;;6.00;1.23;;;;;;;3.89;100.00;101501.91;4971745;28;20046;-73
2023/03/03 07:36:31;;;;;;;3.40;1.13;;;;;;;3.75;99.05;101477.06;4978585;28;20523;-73
2023/03/03 07:39:04;;;;;;;3.33;1.83;;;;;;;3.76;99.38;101486.53;4977392;28;20051;-73
2023/03/03 07:41:36;;;;;;;8.40;1.42;;;;;;;3.65;100.00;101487.47;4974310;28;20053;-73
2023/03/03 07:44:08;;;;;;;4.13;0.73;;;;;;;3.59;100.00;101490.47;4972165;28;20051;-73
2023/03/03 07:46:43;;;;;;;4.30;1.05;;;;;;;3.58;100.00;101482.72;4981091;28;20050;-73
2023/03/03 07:49:24;;;;;;;5.78;1.73;;;;;;;3.60;100.00;101489.69;4973528;28;20157;-73
2023/03/03 07:51:57;;;;;;;4.13;1.00;;;;;;;3.61;100.00;101498.25;4973118;28;20055;-73
2023/03/03 07:54:37;;;;;;;2.35;1.08;;;;;;;3.61;100.00;101508.50;4972966;28;20150;-73
2023/03/03 07:57:26;;;;;;;4.72;1.30;;;;;;;3.60;98.97;101505.06;4972226;28;20047;-73
2023/03/03 08:00:01;;;;;;;5.30;1.25;;;;;;;3.59;98.76;101504.94;4970818;28;20075;-73
2023/03/03 08:02:42;;;;;;;8.45;1.35;;;;;;;3.56;98.59;101506.50;4975028;28;20137;-72
2023/03/03 08:05:29;;;;;;;6.28;1.63;;;;;;;3.53;97.33;101503.75;4969479;28;20062;-73
2023/03/03 08:08:16;;;;;;;5.00;2.00;;;;;;;3.49;97.23;101511.09;4970670;28;20139;-73
2023/03/03 08:10:49;;;;;;;7.13;3.03;;;;;;;3.44;97.99;101509.88;4972516;28;20046;-73
2023/03/03 08:13:22;;;;;;;12.02;3.22;;;;;;;3.43;97.75;101508.09;4975418;28;20133;-73
2023/03/03 08:15:52;;;;;;;8.80;3.00;;;;;;;3.40;98.37;101516.44;4977277;28;20046;-73
2023/03/03 08:18:24;;;;;;;10.23;3.50;;;;;;;3.40;98.21;101520.69;4970219;28;20050;-73
2023/03/03 08:20:56;;;;;;;9.77;2.50;;;;;;;3.38;97.83;101523.13;4975184;28;20054;-73
2023/03/03 08:23:24;;;;;;;7.68;1.73;;;;;;;3.36;99.41;101532.34;4970138;28;20101;-73
2023/03/03 08:25:55;;;;;;;10.57;1.92;;;;;;;3.35;99.39;101538.25;4968301;28;20114;-73
2023/03/03 08:28:23;;;;;;;9.00;1.98;;;;;;;3.35;100.00;101530.59;4971489;28;20568;-73
2023/03/03 08:30:52;;;;;;;8.82;2.28;;;;;;;3.38;100.00;101530.81;4972550;28;20042;-73
2023/03/03 08:33:21;;;;;;;6.13;2.38;;;;;;;3.39;99.96;101536.78;4974925;28;20050;-73
2023/03/03 08:35:49;;;;;;;3.45;1.75;;;;;;;3.40;100.00;101530.91;4969222;28;20569;-73
2023/03/03 08:38:21;;;;;;;14.57;2.88;;;;;;;3.32;100.00;101517.56;4974825;28;20698;-73
2023/03/03 08:40:50;;;;;;;7.00;1.88;;;;;;;3.37;100.00;101523.91;4972305;28;20043;-72
2023/03/03 08:43:21;;;;;;;7.38;2.03;;;;;;;3.38;100.00;101515.44;4975898;28;20063;-73
2023/03/03 08:45:51;;;;;;;2.72;1.60;;;;;;;3.38;100.00;101507.78;4974175;28;20519;-73
2023/03/03 08:48:20;;;;;;;6.03;1.88;;;;;;;3.39;100.00;101517.25;4971615;28;20129;-73
2023/03/03 08:50:49;;;;;;;3.83;1.50;;;;;;;3.37;100.00;101511.13;4972625;28;20066;-73
2023/03/03 08:53:18;;;;;;;2.75;1.35;;;;;;;3.37;100.00;101513.69;4972529;28;20485;-73
2023/03/03 08:55:47;;;;;;;6.18;1.73;;;;;;;3.33;99.56;101511.69;4973408;28;20051;-73
2023/03/03 08:58:17;;;;;;;10.13;2.22;;;;;;;3.28;100.00;101507.91;4971140;28;20114;-73
2023/03/03 09:00:47;;;;;;;4.07;1.48;;;;;;;3.24;100.00;101505.91;4969871;28;20076;-73
2023/03/03 09:03:15;;;;;;;3.78;1.85;;;;;;;3.23;100.00;101522.03;4966371;28;20047;-73
2023/03/03 09:05:44;;;;;;;3.38;1.27;;;;;;;3.18;100.00;101511.47;4972704;28;20034;-73
2023/03/03 09:08:13;;;;;;;5.90;1.30;;;;;;;3.12;100.00;101521.28;4974393;28;20157;-73
2023/03/03 09:10:42;;;;;;;5.30;1.40;;;;;;;3.07;100.00;101523.50;4972470;28;20452;-73
2023/03/03 09:13:15;;;;;;;3.40;2.03;;;;;;;3.06;100.00;101524.28;4962367;28;20047;-73
2023/03/03 09:15:46;;;;;;;4.68;1.50;;;;;;;3.08;100.00;101525.28;4969125;28;20054;-71
2023/03/03 09:18:21;;;;;;;5.78;1.70;;;;;;;3.07;100.00;101531.19;4972178;28;20055;-73
2023/03/03 09:20:50;;;;;;;2.78;1.17;;;;;;;3.08;100.00;101530.38;4971209;28;20578;-71
2023/03/03 09:23:32;;;;;;;4.55;1.63;;;;;;;3.07;100.00;101531.19;4964632;28;20051;-71
2023/03/03 09:26:19;;;;;;;4.47;1.77;;;;;;;3.08;100.00;101526.94;4971591;28;20404;-73
2023/03/03 09:28:47;;;;;;;9.70;1.65;;;;;;;3.07;100.00;101536.28;4978094;28;20062;-71
2023/03/03 09:31:26;;;;;;;2.88;1.13;;;;;;;3.06;100.00;101531.06;4973370;28;20504;-71
2023/03/03 09:33:58;;;;;;;4.20;1.35;;;;;;;3.07;99.66;101528.63;4972640;28;20697;-71
2023/03/03 09:36:28;;;;;;;9.02;1.33;;;;;;;3.05;99.22;101535.28;4972533;28;20054;-71
2023/03/03 09:38:58;;;;;;;6.47;1.20;;;;;;;3.04;99.89;101533.50;4972088;28;20058;-74
2023/03/03 09:42:01;;;;;;;3.63;1.23;;;;;;;2.99;99.69;101534.84;4968531;28;20110;-71
2023/03/03 09:44:36;;;;;;;;;;;;;;;2.97;98.86;101523.59;4969699;28;20051;-72
2023/03/03 09:47:28;;;;;;;3.97;1.00;;;;;;;2.95;99.39;101522.59;4973482;28;19933;-72
2023/03/03 09:50:06;;;;;;;5.28;1.35;;;;;;;2.93;99.67;101524.16;4971466;28;20046;-72
2023/03/03 09:52:41;;;;;;;2.55;1.42;;;;;;;2.93;99.62;101531.81;4967289;28;20054;-72
2023/03/03 09:55:27;;;;;;;3.05;1.63;;;;;;;2.91;100.00;101524.06;4976673;28;20085;-71
2023/03/03 09:58:07;;;;;;;3.33;0.88;;;;;;;2.90;100.00;101534.16;4973397;28;20411;-72
2023/03/03 10:00:48;;;;;;;3.65;1.08;;;;;;;2.89;99.83;101532.41;4966881;28;20547;-72
2023/03/03 10:06:14;;;;;;;9.10;1.65;;;;;;;2.84;99.96;101526.97;5090062;23;20055;-72
2023/03/03 10:09:03;;;;;;;2.63;1.25;;;;;;;2.83;99.80;101522.59;4967657;28;20062;-73
2023/03/03 10:11:40;;;;;;;4.38;1.80;;;;;;;2.73;100.00;101526.16;4962664;28;20043;-71
2023/03/03 10:14:27;;;;;;;4.03;1.33;;;;;;;2.61;100.00;101529.47;4955053;28;20052;-71
2023/03/03 10:17:07;;;;;;;7.70;1.00;;;;;;;2.54;100.00;101528.13;4961338;28;20098;-71
2023/03/03 10:19:41;;;;;;;1.63;0.73;;;;;;;2.54;100.00;101525.56;4957355;28;20074;-72
2023/03/03 10:22:23;;;;;;;6.60;0.80;;;;;;;2.53;100.00;101528.94;4959990;28;20051;-72
2023/03/03 10:25:03;;;;;;;4.38;0.73;;;;;;;2.48;100.00;101517.47;4961113;28;20121;-71
2023/03/03 10:27:48;;;;;;;2.40;0.80;;;;;;;2.47;100.00;101521.72;4960131;28;20046;-71
2023/03/03 10:30:27;;;;;;;8.60;0.77;;;;;;;2.49;100.00;101506.47;4965714;28;20118;-72
2023/03/03 10:32:59;;;;;;;1.55;0.80;;;;;;;2.52;100.00;101504.16;4962261;28;20053;-72
2023/03/03 10:36:03;;;;;;;3.05;0.88;;;;;;;2.57;100.00;101507.94;4969398;28;20055;-72
2023/03/03 10:38:38;;;;;;;;;;;;;;;2.60;100.00;101515.81;4968358;28;20051;-72
2023/03/03 10:41:28;;;;;;;3.72;1.25;;;;;;;2.64;100.00;101515.28;4959973;28;20563;-72
2023/03/03 10:44:14;;;;;;;2.35;0.75;;;;;;;2.66;100.00;101513.72;4967926;28;20051;-72
2023/03/03 10:47:02;;;;;;;2.67;0.57;;;;;;;2.67;100.00;101523.16;4960801;28;20105;-72
2023/03/03 10:49:48;;;;;;;3.50;0.60;;;;;;;2.68;100.00;101516.38;4968429;28;20504;-71
2023/03/03 10:52:32;;;;;;;2.58;0.82;;;;;;;2.62;100.00;101505.72;4963338;28;20444;-72
2023/03/03 10:55:25;;;;;;;2.00;0.70;;;;;;;2.69;100.00;101518.16;4963549;28;20772;-72
2023/03/03 10:58:06;;;;;;;9.45;0.95;;;;;;;2.60;100.00;101514.94;4967287;28;20043;-71
2023/03/03 11:00:41;;;;;;;5.00;1.20;;;;;;;2.50;100.00;101513.38;4964846;28;20062;-71
2023/03/03 11:03:40;;;;;;;3.35;0.98;;;;;;;2.41;100.00;101507.59;4965191;28;20074;-72
2023/03/03 11:06:16;;;;;;;1.05;0.40;;;;;;;2.38;100.00;101512.44;4957311;28;20051;-73
2023/03/03 11:08:50;;;;;;;2.55;0.50;;;;;;;2.39;100.00;101514.25;4966093;28;20047;-74
2023/03/03 11:11:26;;;;;;;3.00;0.90;;;;;;;2.42;100.00;101511.91;4970108;28;20106;-72
2023/03/03 11:14:01;;;;;;;5.88;1.25;;;;;;;2.45;100.00;101507.94;4967784;28;20149;-73
2023/03/03 11:16:46;;;;;;;6.20;1.42;;;;;;;2.48;100.00;101510.69;4967638;28;20142;-72
2023/03/03 11:19:33;;;;;;;0.65;0.50;;;;;;;2.45;100.00;101507.00;4968082;28;20138;-72
2023/03/03 11:22:14;;;;;;;2.92;0.90;;;;;;;2.44;100.00;101512.91;4967778;28;20054;-72
2023/03/03 11:25:02;;;;;;;2.88;1.00;;;;;;;2.46;100.00;101509.69;4968782;28;20520;-72
2023/03/03 11:28:01;;;;;;;5.03;0.60;;;;;;;2.50;100.00;101505.72;4971655;28;20082;-73
2023/03/03 11:30:44;;;;;;;1.60;0.82;;;;;;;2.53;100.00;101508.47;4967344;28;20050;-72
2023/03/03 11:33:19;;;;;;;1.05;0.68;;;;;;;2.46;100.00;101503.69;4971733;28;20050;-74
2023/03/03 11:35:59;;;;;;;2.53;0.75;;;;;;;2.39;100.00;101501.47;4967944;28;20108;-73
2023/03/03 11:38:42;;;;;;;3.42;1.38;;;;;;;2.31;100.00;101498.34;4966443;28;20054;-73
2023/03/03 11:41:20;;;;;;;7.05;1.38;;;;;;;2.28;100.00;101499.00;4968977;28;20062;-73
2023/03/03 11:43:54;;;;;;;2.45;0.95;;;;;;;2.23;100.00;101490.13;4964894;28;20051;-73
2023/03/03 11:46:27;;;;;;;1.55;1.08;;;;;;;2.21;100.00;101491.66;4965066;28;20401;-73
2023/03/03 11:49:02;;;;;;;2.08;0.82;;;;;;;2.23;100.00;101495.22;4968038;28;20056;-73
2023/03/03 11:51:44;;;;;;;6.70;1.02;;;;;;;2.27;100.00;101493.78;4963585;28;20464;-73
2023/03/03 11:54:21;;;;;;;2.17;0.63;;;;;;;2.29;100.00;101490.59;4967836;28;20051;-73
2023/03/03 11:56:49;;;;;;;3.45;0.60;;;;;;;2.35;100.00;101494.34;4967483;28;20534;-73
2023/03/03 12:00:08;;;;;;;1.63;0.60;;;;;;;2.34;100.00;101483.25;4966173;28;20110;-73
2023/03/03 12:02:57;;;;;;;2.00;0.98;;;;;;;2.38;100.00;101480.13;4899450;29;20052;-73